Time;durP1;ratioP1;P1;durP2;ratioP2;P2;SDS_P1;SDS_P2;PMS_P1;PMS_P2;Temp;Humidity;BMP_temperature;BMP_pressure;BME280_temperature;BME280_humidity;BME280_pressure;Samples;Min_cycle;Max_cycle;Signal;HPM_P1;HPM_P2
2023/07/20 00:00:29;;;;;;;0.40;0.40;;;;;;;18.46;53.04;96743.03;29395;202;63025;-60
2023/07/20 00:01:00;;;;;;;0.30;0.30;;;;;;;18.47;52.08;96735.59;29395;248;63004;-59
2023/07/20 00:01:31;;;;;;;0.30;0.30;;;;;;;18.44;52.87;96745.34;29395;211;63008;-61
2023/07/20 00:02:05;;;;;;;0.40;0.40;;;;;;;18.44;53.06;96739.84;29394;202;64008;-60
2023/07/20 00:02:36;;;;;;;0.30;0.30;;;;;;;18.42;52.72;96744.88;29395;239;63009;-60
2023/07/20 00:03:18;;;;;;;0.30;0.30;;;;;;;18.41;52.82;96741.34;29395;228;63005;-60
2023/07/20 00:03:54;;;;;;;0.40;0.40;;;;;;;18.39;52.65;96731.84;29395;208;63009;-61
2023/07/20 00:04:25;;;;;;;0.40;0.40;;;;;;;18.37;52.06;96729.44;29395;199;63005;-59
2023/07/20 00:04:57;;;;;;;0.40;0.40;;;;;;;18.39;52.44;96737.34;29395;250;63009;-63
2023/07/20 00:05:28;;;;;;;0.30;0.30;;;;;;;18.38;52.57;96741.22;29395;231;63005;-62
2023/07/20 00:05:59;;;;;;;0.40;0.40;;;;;;;18.38;52.67;96741.22;29395;214;63014;-63
2023/07/20 00:06:30;;;;;;;0.40;0.40;;;;;;;18.40;52.87;96742.47;29394;247;64004;-59
2023/07/20 00:07:02;;;;;;;0.40;0.40;;;;;;;18.38;51.47;96733.00;29395;241;63009;-62
2023/07/20 00:07:33;;;;;;;0.40;0.40;;;;;;;18.37;51.79;96734.13;29394;202;64009;-60
2023/07/20 00:08:06;;;;;;;0.40;0.40;;;;;;;18.35;51.67;96737.25;29395;313;63009;-61
2023/07/20 00:08:37;;;;;;;0.40;0.40;;;;;;;18.34;51.99;96740.34;29395;206;63004;-63
2023/07/20 00:09:08;;;;;;;0.40;0.40;;;;;;;18.34;51.63;96734.84;29395;212;63016;-61
2023/07/20 00:09:40;;;;;;;0.40;0.40;;;;;;;18.33;51.45;96734.06;29395;248;63004;-59
2023/07/20 00:10:11;;;;;;;0.40;0.40;;;;;;;18.31;51.84;96741.84;29395;210;63009;-61
2023/07/20 00:10:42;;;;;;;0.40;0.40;;;;;;;18.35;52.25;96742.75;29394;253;64009;-62
2023/07/20 00:11:14;;;;;;;0.40;0.40;;;;;;;18.36;51.22;96738.06;29395;199;63009;-60
2023/07/20 00:11:50;;;;;;;0.40;0.40;;;;;;;18.37;51.83;96736.88;29394;246;64009;-61
2023/07/20 00:12:21;;;;;;;0.30;0.30;;;;;;;18.42;51.52;96728.41;29395;273;63009;-59
2023/07/20 00:12:53;;;;;;;0.40;0.40;;;;;;;18.45;51.42;96735.94;29394;244;64005;-61
2023/07/20 00:13:24;;;;;;;0.40;0.40;;;;;;;18.49;50.88;96734.13;29395;218;63009;-61
2023/07/20 00:13:59;;;;;;;0.40;0.40;;;;;;;18.49;51.46;96736.06;29395;199;63005;-60
2023/07/20 00:14:31;;;;;;;0.40;0.40;;;;;;;18.47;51.49;96732.84;29395;218;63009;-60
2023/07/20 00:15:03;;;;;;;0.35;0.35;;;;;;;18.46;51.44;96734.81;29395;229;63004;-59
2023/07/20 00:15:36;;;;;;;0.40;0.40;;;;;;;18.43;50.87;96728.06;29395;207;63015;-59
2023/07/20 00:16:07;;;;;;;0.32;0.32;;;;;;;18.43;51.33;96739.03;29395;202;63004;-63
2023/07/20 00:16:38;;;;;;;0.35;0.35;;;;;;;18.41;50.80;96729.56;29395;221;63008;-62
2023/07/20 00:17:09;;;;;;;0.40;0.40;;;;;;;18.38;50.36;96724.75;29394;218;64008;-62
2023/07/20 00:17:41;;;;;;;0.40;0.40;;;;;;;18.37;51.10;96728.63;29395;224;63009;-61
2023/07/20 00:18:13;;;;;;;0.40;0.40;;;;;;;18.35;50.80;96725.47;29395;237;63005;-62
2023/07/20 00:18:44;;;;;;;0.88;0.88;;;;;;;18.40;51.10;96727.94;29395;233;63009;-63
2023/07/20 00:19:16;;;;;;;0.40;0.40;;;;;;;18.43;50.76;96724.50;29395;209;63005;-61
2023/07/20 00:19:47;;;;;;;1.05;1.05;;;;;;;18.42;50.95;96726.47;29395;202;63009;-61
2023/07/20 00:20:18;;;;;;;0.40;0.40;;;;;;;18.41;50.35;96735.03;29395;208;63010;-61
2023/07/20 00:20:50;;;;;;;0.40;0.40;;;;;;;18.38;50.53;96730.25;29395;244;63009;-59
2023/07/20 00:21:22;;;;;;;0.40;0.40;;;;;;;18.35;50.38;96730.97;29395;203;63005;-62
2023/07/20 00:21:54;;;;;;;0.40;0.40;;;;;;;18.33;51.21;96733.25;29395;202;63019;-62
2023/07/20 00:22:26;;;;;;;0.40;0.40;;;;;;;18.35;51.02;96731.75;29394;210;63999;-63
2023/07/20 00:22:58;;;;;;;0.40;0.40;;;;;;;18.36;50.51;96729.81;29395;241;63009;-62
2023/07/20 00:23:29;;;;;;;0.40;0.40;;;;;;;18.38;50.95;96730.25;29395;202;63004;-61
2023/07/20 00:24:00;;;;;;;0.40;0.40;;;;;;;18.36;50.32;96735.31;29395;207;63017;-59
2023/07/20 00:24:32;;;;;;;0.40;0.40;;;;;;;18.32;50.13;96731.66;29395;237;63004;-62
2023/07/20 00:25:04;;;;;;;0.37;0.37;;;;;;;18.33;50.97;96727.75;29395;224;63009;-63
2023/07/20 00:25:36;;;;;;;0.40;0.40;;;;;;;18.34;51.07;96735.66;29395;219;63005;-61
2023/07/20 00:26:07;;;;;;;0.40;0.40;;;;;;;18.34;50.83;96734.84;29395;235;63009;-63
2023/07/20 00:26:38;;;;;;;0.40;0.40;;;;;;;18.31;50.67;96732.78;29395;220;63005;-62
2023/07/20 00:27:12;;;;;;;0.30;0.30;;;;;;;18.29;50.54;96726.84;29394;230;64013;-62
2023/07/20 00:27:43;;;;;;;0.40;0.40;;;;;;;18.25;50.36;96732.22;29395;197;63005;-62
2023/07/20 00:28:15;;;;;;;0.40;0.40;;;;;;;18.22;50.56;96737.63;29395;203;63019;-60
2023/07/20 00:28:46;;;;;;;0.40;0.40;;;;;;;18.19;50.64;96732.81;29395;234;63005;-62
2023/07/20 00:29:17;;;;;;;0.40;0.40;;;;;;;18.16;50.90;96736.25;29395;279;63009;-62
2023/07/20 00:29:49;;;;;;;0.40;0.40;;;;;;;18.13;51.09;96728.69;29395;218;63004;-62
2023/07/20 00:30:20;;;;;;;0.40;0.40;;;;;;;18.16;51.46;96733.50;29395;204;63009;-61
2023/07/20 00:30:51;;;;;;;0.40;0.40;;;;;;;18.16;50.84;96730.75;29395;226;63004;-62
2023/07/20 00:31:23;;;;;;;0.37;0.37;;;;;;;18.15;50.85;96727.19;29395;213;63009;-60
2023/07/20 00:31:54;;;;;;;0.32;0.32;;;;;;;18.15;51.04;96737.38;29394;222;64008;-62
2023/07/20 00:32:25;;;;;;;0.40;0.40;;;;;;;18.13;51.12;96728.69;29395;223;63008;-62
2023/07/20 00:32:57;;;;;;;0.40;0.40;;;;;;;18.11;51.36;96731.78;29395;216;63005;-61
2023/07/20 00:33:28;;;;;;;0.40;0.40;;;;;;;18.10;51.37;96735.66;29395;221;63009;-63
2023/07/20 00:33:59;;;;;;;0.40;0.40;;;;;;;18.11;51.21;96733.72;29395;215;63005;-60
2023/07/20 00:34:31;;;;;;;0.40;0.40;;;;;;;18.08;51.07;96719.53;29395;203;63009;-61
2023/07/20 00:35:03;;;;;;;0.40;0.40;;;;;;;18.08;51.05;96726.97;29395;197;63005;-59
2023/07/20 00:35:34;;;;;;;0.40;0.40;;;;;;;18.08;51.08;96737.97;29395;199;63009;-61
2023/07/20 00:36:06;;;;;;;0.40;0.40;;;;;;;18.04;51.60;96737.84;29394;232;64009;-62
2023/07/20 00:36:38;;;;;;;0.40;0.40;;;;;;;18.07;51.79;96730.87;29395;229;63009;-61
2023/07/20 00:37:09;;;;;;;0.40;0.40;;;;;;;18.08;50.94;96732.47;29395;203;63004;-62
2023/07/20 00:37:40;;;;;;;0.40;0.40;;;;;;;18.08;51.47;96738.75;29395;241;63009;-63
2023/07/20 00:38:12;;;;;;;0.40;0.40;;;;;;;18.06;51.33;96737.50;29394;233;64009;-62
2023/07/20 00:38:43;;;;;;;0.40;0.40;;;;;;;18.03;50.97;96732.69;29395;202;63009;-60
2023/07/20 00:39:14;;;;;;;0.40;0.40;;;;;;;18.01;50.88;96732.28;29395;213;63004;-60
2023/07/20 00:39:45;;;;;;;0.40;0.40;;;;;;;17.98;51.03;96727.47;29395;306;63008;-60
2023/07/20 00:40:17;;;;;;;0.40;0.40;;;;;;;17.94;51.06;96732.84;29395;225;63010;-59
2023/07/20 00:40:49;;;;;;;0.40;0.40;;;;;;;17.92;51.51;96740.63;29395;214;63009;-62
2023/07/20 00:41:20;;;;;;;0.37;0.37;;;;;;;17.91;51.76;96736.28;29394;213;64009;-62
2023/07/20 00:41:52;;;;;;;0.40;0.40;;;;;;;17.90;52.06;96740.16;29394;197;64013;-59
2023/07/20 00:42:23;;;;;;;0.40;0.40;;;;;;;17.89;51.71;96744.06;29394;235;64009;-59
2023/07/20 00:42:54;;;;;;;0.40;0.40;;;;;;;17.88;51.94;96739.69;29395;216;63009;-60
2023/07/20 00:43:25;;;;;;;0.40;0.40;;;;;;;17.87;51.60;96746.34;29395;199;63004;-58
2023/07/20 00:43:57;;;;;;;0.40;0.40;;;;;;;17.86;51.77;96742.00;29395;251;63009;-60
2023/07/20 00:44:29;;;;;;;0.40;0.40;;;;;;;17.85;51.38;96739.59;29394;226;64009;-59
2023/07/20 00:45:00;;;;;;;0.40;0.40;;;;;;;17.83;51.54;96745.41;29395;202;63009;-58
2023/07/20 00:45:33;;;;;;;0.40;0.40;;;;;;;17.80;52.54;96743.34;29395;212;63004;-60
2023/07/20 00:46:05;;;;;;;0.40;0.40;;;;;;;17.76;52.78;96742.44;29394;223;64009;-58
2023/07/20 00:46:37;;;;;;;0.40;0.40;;;;;;;17.73;53.18;96745.87;29395;208;63015;-60
2023/07/20 00:47:09;;;;;;;0.40;0.40;;;;;;;17.71;53.63;96753.63;29395;202;63008;-59
2023/07/20 00:47:40;;;;;;;0.40;0.40;;;;;;;17.69;53.85;96748.50;29394;249;64009;-59
2023/07/20 00:48:14;;;;;;;0.30;0.30;;;;;;;17.65;54.07;96742.09;29394;225;64014;-58
2023/07/20 00:48:45;;;;;;;0.30;0.30;;;;;;;17.62;54.39;96747.44;29395;279;63015;-58
2023/07/20 00:49:20;;;;;;;0.40;0.40;;;;;;;17.58;55.06;96752.00;29394;224;64013;-59
2023/07/20 00:49:53;;;;;;;0.40;0.40;;;;;;;17.55;54.77;96763.66;29394;208;64009;-58
2023/07/20 00:50:26;;;;;;;0.40;0.40;;;;;;;17.47;54.15;96756.31;29395;221;63009;-59
2023/07/20 00:51:00;;;;;;;0.40;0.40;;;;;;;17.42;53.54;96751.84;29395;205;63004;-58
2023/07/20 00:51:31;;;;;;;0.40;0.40;;;;;;;17.38;54.05;96754.47;29395;275;63009;-58
2023/07/20 00:52:06;;;;;;;0.40;0.40;;;;;;;17.34;54.55;96761.78;29395;216;63004;-59
2023/07/20 00:52:43;;;;;;;0.40;0.40;;;;;;;17.33;54.68;96757.44;29395;202;63009;-58
2023/07/20 00:53:14;;;;;;;0.40;0.40;;;;;;;17.30;55.28;96758.12;29395;234;63004;-59
2023/07/20 00:53:46;;;;;;;0.40;0.40;;;;;;;17.29;55.50;96767.50;29394;218;64013;-59
2023/07/20 00:54:18;;;;;;;0.40;0.40;;;;;;;17.29;55.25;96759.28;29395;257;63005;-58
2023/07/20 00:54:49;;;;;;;0.40;0.40;;;;;;;17.27;56.47;96764.31;29394;251;64014;-59
2023/07/20 00:55:21;;;;;;;0.40;0.40;;;;;;;17.26;56.35;96761.91;29395;232;63005;-57
2023/07/20 00:55:52;;;;;;;0.40;0.40;;;;;;;17.24;56.08;96764.97;29395;243;63009;-57
2023/07/20 00:56:24;;;;;;;0.40;0.40;;;;;;;17.20;55.87;96764.03;29395;234;63005;-60
2023/07/20 00:56:55;;;;;;;0.40;0.40;;;;;;;17.20;56.07;96768.72;29395;218;63009;-59
2023/07/20 00:57:27;;;;;;;0.40;0.40;;;;;;;17.17;56.53;96767.47;29395;262;63005;-59
2023/07/20 00:58:00;;;;;;;0.40;0.40;;;;;;;17.17;56.23;96770.19;29395;215;63024;-57
2023/07/20 00:58:32;;;;;;;0.40;0.40;;;;;;;17.15;55.83;96767.00;29394;208;64009;-58
2023/07/20 00:59:04;;;;;;;0.40;0.40;;;;;;;17.16;55.84;96768.59;29394;219;64013;-59
2023/07/20 00:59:39;;;;;;;0.40;0.40;;;;;;;17.17;56.62;96767.47;29395;214;63009;-59
2023/07/20 01:00:12;;;;;;;0.40;0.40;;;;;;;17.15;56.71;96767.00;29394;230;64013;-59
2023/07/20 01:00:43;;;;;;;0.40;0.40;;;;;;;17.14;56.79;96770.88;29395;218;63004;-59
2023/07/20 01:01:14;;;;;;;0.40;0.40;;;;;;;17.12;56.48;96767.66;29395;265;63008;-59
2023/07/20 01:01:45;;;;;;;0.40;0.40;;;;;;;17.11;55.81;96766.06;29395;210;63004;-58
2023/07/20 01:02:17;;;;;;;0.32;0.32;;;;;;;17.07;56.25;96765.12;29395;260;63009;-59
2023/07/20 01:02:49;;;;;;;0.35;0.35;;;;;;;17.07;57.23;96776.09;29395;222;63006;-59
2023/07/20 01:03:20;;;;;;;0.40;0.40;;;;;;;17.03;56.45;96765.00;29395;222;63009;-60
2023/07/20 01:03:51;;;;;;;0.40;0.40;;;;;;;17.04;56.76;96771.28;29395;233;63005;-60
2023/07/20 01:04:22;;;;;;;0.40;0.40;;;;;;;17.04;56.55;96768.56;29395;202;63019;-59
2023/07/20 01:04:55;;;;;;;0.40;0.40;;;;;;;17.02;56.68;96770.81;29395;285;63011;-59
2023/07/20 01:05:38;;;;;;;0.40;0.40;;;;;;;17.02;56.30;96771.63;29394;313;64013;-59
2023/07/20 01:06:46;;;;;;;0.40;0.40;;;;;;;17.01;56.84;96766.47;29395;204;63004;-58
2023/07/20 01:07:31;;;;;;;0.40;0.40;;;;;;;16.98;56.89;96775.41;29395;242;63008;-59
2023/07/20 01:08:16;;;;;;;0.40;0.40;;;;;;;16.98;56.63;96772.66;29395;234;63009;-59
2023/07/20 01:09:23;;;;;;;0.40;0.40;;;;;;;16.96;56.03;96766.72;29395;206;63004;-59
2023/07/20 01:10:10;;;;;;;0.50;0.50;;;;;;;16.97;56.23;96771.88;29394;226;64004;-59
2023/07/20 01:10:58;;;;;;;0.40;0.40;;;;;;;16.95;57.54;96771.41;29395;200;63001;-59
2023/07/20 01:12:03;;;;;;;0.40;0.40;;;;;;;16.95;57.22;96773.34;29395;222;63009;-59
2023/07/20 01:12:47;;;;;;;0.40;0.40;;;;;;;16.91;57.45;96773.19;29394;198;64009;-59
2023/07/20 01:13:20;;;;;;;0.60;0.60;;;;;;;16.91;57.58;96777.87;29395;223;63009;-60
2023/07/20 01:13:52;;;;;;;0.40;0.40;;;;;;;16.91;57.34;96772.41;29395;205;63004;-59
2023/07/20 01:14:25;;;;;;;0.40;0.40;;;;;;;16.91;57.12;96769.66;29395;217;63009;-62
2023/07/20 01:14:57;;;;;;;0.40;0.40;;;;;;;16.92;56.60;96774.00;29395;214;63004;-60
2023/07/20 01:15:28;;;;;;;0.40;0.40;;;;;;;16.89;56.32;96760.97;29395;202;63009;-59
2023/07/20 01:16:03;;;;;;;0.40;0.40;;;;;;;16.94;56.37;96771.72;29395;300;63004;-60
2023/07/20 01:16:35;;;;;;;0.40;0.40;;;;;;;16.93;56.40;96764.66;29395;205;63008;-60
2023/07/20 01:17:06;;;;;;;0.40;0.40;;;;;;;16.94;56.86;96767.06;29394;221;64001;-59
2023/07/20 01:17:37;;;;;;;0.40;0.40;;;;;;;16.94;56.85;96771.72;29395;287;63009;-59
2023/07/20 01:18:08;;;;;;;0.40;0.40;;;;;;;16.94;56.98;96771.72;29395;216;63005;-59
2023/07/20 01:18:40;;;;;;;0.40;0.40;;;;;;;16.93;57.74;96772.88;29395;301;63009;-60
2023/07/20 01:19:14;;;;;;;0.40;0.40;;;;;;;16.89;58.44;96774.69;29395;206;63005;-59
2023/07/20 01:19:45;;;;;;;0.40;0.40;;;;;;;16.86;57.90;96776.16;29395;233;63009;-60
2023/07/20 01:20:19;;;;;;;0.40;0.40;;;;;;;16.85;58.15;96773.75;29395;227;63008;-59
2023/07/20 01:20:53;;;;;;;0.40;0.40;;;;;;;16.83;57.47;96770.53;29395;329;63009;-59
2023/07/20 01:21:34;;;;;;;0.40;0.40;;;;;;;16.81;57.74;96767.31;29395;263;63004;-60
2023/07/20 01:22:44;;;;;;;0.40;0.40;;;;;;;16.81;57.70;96772.81;29416;238;64013;-60
2023/07/20 01:23:51;;;;;;;0.40;0.40;;;;;;;16.79;57.32;96773.12;29395;204;63009;-59
2023/07/20 01:24:51;;;;;;;0.40;0.40;;;;;;;16.81;57.29;96768.13;29395;234;63004;-61
2023/07/20 01:26:02;;;;;;;0.40;0.40;;;;;;;16.81;58.29;96772.81;29395;207;63009;-59
2023/07/20 01:27:22;;;;;;;0.50;0.50;;;;;;;16.78;58.14;96770.72;29394;235;64009;-60
2023/07/20 01:28:51;;;;;;;0.50;0.50;;;;;;;16.76;58.94;96771.06;29395;204;63009;-60
2023/07/20 01:30:20;;;;;;;0.50;0.50;;;;;;;16.77;59.58;96777.34;29395;212;63004;-59
2023/07/20 01:31:26;;;;;;;0.40;0.40;;;;;;;16.74;58.62;96774.12;29395;288;63009;-61
2023/07/20 01:31:58;;;;;;;0.40;0.40;;;;;;;16.75;57.79;96770.25;29394;280;64013;-59
2023/07/20 01:32:31;;;;;;;0.40;0.40;;;;;;;16.77;57.99;96772.66;29395;238;63005;-61
2023/07/20 01:33:03;;;;;;;0.40;0.40;;;;;;;16.80;58.01;96765.72;29395;205;63009;-63
2023/07/20 01:33:35;;;;;;;0.40;0.40;;;;;;;16.82;57.43;96758.78;29395;203;63001;-61
2023/07/20 01:34:11;;;;;;;0.40;0.40;;;;;;;16.86;57.17;96765.19;29395;236;63019;-61
2023/07/20 01:34:44;;;;;;;0.40;0.40;;;;;;;16.89;56.67;96763.72;29395;214;63005;-60
2023/07/20 01:35:17;;;;;;;0.40;0.40;;;;;;;16.90;56.38;96765.31;29395;205;63009;-61
2023/07/20 01:35:56;;;;;;;0.40;0.40;;;;;;;16.91;56.72;96766.91;29395;198;63005;-59
2023/07/20 01:36:33;;;;;;;0.40;0.40;;;;;;;16.91;56.30;96761.44;29394;213;64013;-60
2023/07/20 01:37:06;;;;;;;0.40;0.40;;;;;;;16.91;56.82;96762.25;29395;382;63000;-62
2023/07/20 01:37:39;;;;;;;0.40;0.40;;;;;;;16.93;56.51;96770.13;29394;213;64013;-60
2023/07/20 01:38:13;;;;;;;0.40;0.40;;;;;;;16.94;56.64;96758.81;29395;202;63004;-60
2023/07/20 01:38:45;;;;;;;0.35;0.35;;;;;;;16.94;56.47;96761.56;29395;229;63009;-61
2023/07/20 01:39:18;;;;;;;0.40;0.40;;;;;;;16.96;56.01;96753.00;29395;243;63004;-60
2023/07/20 01:39:50;;;;;;;0.40;0.40;;;;;;;16.95;56.24;96757.69;29394;202;64014;-62
2023/07/20 01:40:23;;;;;;;0.40;0.40;;;;;;;16.97;56.06;96760.91;29395;219;63005;-62
2023/07/20 01:40:56;;;;;;;0.40;0.40;;;;;;;16.98;56.38;96762.47;29395;232;63009;-63
2023/07/20 01:41:27;;;;;;;0.40;0.40;;;;;;;16.99;56.51;96758.59;29395;218;63017;-63
2023/07/20 01:41:59;;;;;;;0.40;0.40;;;;;;;17.01;56.21;96755.50;29395;208;63009;-62
2023/07/20 01:42:31;;;;;;;0.40;0.40;;;;;;;17.03;56.24;96759.53;29394;279;64009;-61
2023/07/20 01:43:03;;;;;;;0.40;0.40;;;;;;;17.04;56.15;96761.13;29395;202;63009;-63
2023/07/20 01:43:34;;;;;;;0.40;0.40;;;;;;;17.04;55.89;96754.84;29395;235;63005;-61
2023/07/20 01:44:06;;;;;;;0.40;0.40;;;;;;;17.05;55.73;96756.44;29395;257;63009;-62
2023/07/20 01:44:38;;;;;;;0.40;0.40;;;;;;;17.05;55.81;96761.94;29395;198;63004;-61
2023/07/20 01:45:10;;;;;;;0.40;0.40;;;;;;;17.07;56.08;96754.16;29395;206;63009;-63
2023/07/20 01:45:41;;;;;;;0.40;0.40;;;;;;;17.07;55.71;96759.66;29395;211;63004;-61
2023/07/20 01:46:12;;;;;;;0.40;0.40;;;;;;;17.06;55.77;96758.06;29395;198;63009;-63
2023/07/20 01:46:43;;;;;;;0.40;0.40;;;;;;;17.09;56.42;96752.69;29395;202;63004;-61
2023/07/20 01:47:15;;;;;;;0.40;0.40;;;;;;;17.08;55.75;96750.28;29395;367;63009;-61
2023/07/20 01:47:46;;;;;;;0.40;0.40;;;;;;;17.08;55.97;96750.28;29394;221;64020;-60
2023/07/20 01:48:17;;;;;;;0.40;0.40;;;;;;;17.07;55.97;96749.50;29395;219;63009;-62
2023/07/20 01:48:48;;;;;;;0.40;0.40;;;;;;;17.07;55.85;96759.66;29395;216;63005;-62
2023/07/20 01:49:20;;;;;;;0.40;0.40;;;;;;;17.06;55.80;96752.56;29394;320;64013;-59
2023/07/20 01:49:51;;;;;;;0.40;0.40;;;;;;;17.05;56.00;96748.22;29395;202;63005;-61
2023/07/20 01:50:22;;;;;;;0.40;0.40;;;;;;;17.03;56.10;96750.50;29395;218;63009;-60
2023/07/20 01:50:53;;;;;;;0.40;0.40;;;;;;;17.01;55.96;96750.03;29395;301;63004;-62
2023/07/20 01:51:26;;;;;;;0.40;0.40;;;;;;;16.99;56.02;96752.31;29395;205;63009;-62
2023/07/20 01:51:57;;;;;;;0.40;0.40;;;;;;;17.00;56.17;96753.91;29395;221;63004;-60
2023/07/20 01:52:29;;;;;;;0.40;0.40;;;;;;;16.99;56.17;96757.78;29395;358;63009;-58
2023/07/20 01:53:01;;;;;;;0.40;0.40;;;;;;;16.97;56.44;96749.13;29395;213;63004;-59
2023/07/20 01:53:34;;;;;;;0.40;0.40;;;;;;;16.93;57.24;96759.97;29394;226;64013;-59
2023/07/20 01:54:05;;;;;;;0.40;0.40;;;;;;;16.92;57.70;96757.56;29395;229;63004;-59
2023/07/20 01:54:37;;;;;;;0.40;0.40;;;;;;;16.89;57.40;96755.50;29395;231;63008;-57
2023/07/20 01:55:09;;;;;;;0.40;0.40;;;;;;;16.88;56.99;96753.87;29395;227;63007;-58
2023/07/20 01:55:40;;;;;;;0.40;0.40;;;;;;;16.86;56.91;96753.41;29394;231;64013;-60
2023/07/20 01:56:15;;;;;;;0.40;0.40;;;;;;;16.85;57.09;96758.09;29395;212;63012;-60
2023/07/20 01:56:46;;;;;;;0.40;0.40;;;;;;;16.86;56.96;96753.41;29395;261;63009;-59
2023/07/20 01:57:18;;;;;;;0.40;0.40;;;;;;;16.86;57.04;96756.16;29395;218;63005;-58
2023/07/20 01:57:49;;;;;;;0.40;0.40;;;;;;;16.84;57.29;96751.00;29395;212;63009;-59
2023/07/20 01:58:20;;;;;;;0.40;0.40;;;;;;;16.83;57.29;96754.87;29395;268;63014;-59
2023/07/20 01:58:52;;;;;;;0.40;0.40;;;;;;;16.84;57.40;96761.97;29395;241;63009;-59
2023/07/20 01:59:23;;;;;;;0.40;0.40;;;;;;;16.83;57.80;96765.06;29395;202;63000;-63
2023/07/20 01:59:55;;;;;;;0.40;0.40;;;;;;;16.80;56.93;96749.28;29395;258;63009;-60
2023/07/20 02:00:26;;;;;;;0.40;0.40;;;;;;;16.80;57.14;96755.56;29394;197;64009;-59
2023/07/20 02:00:57;;;;;;;0.40;0.40;;;;;;;16.80;57.83;96754.75;29395;234;63008;-61
2023/07/20 02:01:28;;;;;;;0.40;0.40;;;;;;;16.80;57.44;96757.50;29395;336;63005;-60
2023/07/20 02:02:01;;;;;;;0.40;0.40;;;;;;;16.79;57.00;96753.97;29395;205;63005;-59
2023/07/20 02:02:32;;;;;;;0.40;0.40;;;;;;;16.77;57.00;96756.22;29395;308;63005;-61
2023/07/20 02:03:03;;;;;;;0.40;0.40;;;;;;;16.79;56.92;96753.16;29394;225;64014;-63
2023/07/20 02:03:35;;;;;;;0.40;0.40;;;;;;;16.81;57.49;96757.16;29395;200;63005;-60
2023/07/20 02:04:06;;;;;;;0.40;0.40;;;;;;;16.83;57.00;96756.84;29395;229;63018;-59
2023/07/20 02:04:37;;;;;;;0.40;0.40;;;;;;;16.81;56.91;96750.88;29395;276;63005;-61
2023/07/20 02:05:09;;;;;;;0.40;0.40;;;;;;;16.81;56.88;96754.44;29394;197;64013;-60
2023/07/20 02:05:44;;;;;;;0.40;0.40;;;;;;;16.81;56.79;96753.63;29394;188;64004;-63
2023/07/20 02:06:15;;;;;;;0.40;0.40;;;;;;;16.81;56.83;96757.16;29395;215;63009;-61
2023/07/20 02:06:46;;;;;;;0.40;0.40;;;;;;;16.80;56.81;96754.75;29395;236;63008;-59
2023/07/20 02:07:17;;;;;;;0.40;0.40;;;;;;;16.79;57.15;96756.69;29395;357;63009;-61
2023/07/20 02:07:48;;;;;;;0.40;0.40;;;;;;;16.78;57.10;96757.84;29395;236;63004;-60
2023/07/20 02:08:20;;;;;;;0.40;0.40;;;;;;;16.79;57.40;96764.91;29395;196;63008;-62
2023/07/20 02:08:51;;;;;;;0.40;0.40;;;;;;;16.80;57.47;96760.25;29394;225;64008;-61
2023/07/20 02:09:24;;;;;;;0.40;0.40;;;;;;;16.78;57.17;96757.03;29395;226;63009;-60
2023/07/20 02:09:56;;;;;;;0.40;0.40;;;;;;;16.77;57.10;96760.91;29395;197;63005;-60
2023/07/20 02:10:27;;;;;;;0.40;0.40;;;;;;;16.75;57.26;96758.50;29395;241;63009;-60
2023/07/20 02:10:59;;;;;;;0.40;0.40;;;;;;;16.74;57.43;96757.69;29395;209;63005;-60
2023/07/20 02:11:30;;;;;;;0.40;0.40;;;;;;;16.73;57.09;96761.56;29395;245;63009;-59
2023/07/20 02:12:01;;;;;;;0.40;0.40;;;;;;;16.72;57.05;96754.50;29395;207;63005;-60
2023/07/20 02:12:32;;;;;;;0.40;0.40;;;;;;;16.71;57.46;96766.59;29395;236;63009;-60
2023/07/20 02:13:03;;;;;;;0.37;0.37;;;;;;;16.69;57.36;96765.31;29395;219;63005;-60
2023/07/20 02:13:35;;;;;;;0.40;0.40;;;;;;;16.68;57.63;96772.75;29394;333;64013;-60
2023/07/20 02:14:06;;;;;;;0.40;0.40;;;;;;;16.67;57.70;96770.31;29395;301;63004;-61
2023/07/20 02:14:37;;;;;;;0.40;0.40;;;;;;;16.67;57.55;96762.91;29395;211;63009;-60
2023/07/20 02:15:09;;;;;;;0.40;0.40;;;;;;;16.66;57.31;96764.03;29395;221;63004;-62
2023/07/20 02:15:42;;;;;;;0.37;0.37;;;;;;;16.66;57.48;96769.53;29395;218;63008;-59
2023/07/20 02:16:13;;;;;;;0.40;0.40;;;;;;;16.65;57.68;96767.91;29395;213;63014;-60
2023/07/20 02:16:46;;;;;;;0.40;0.40;;;;;;;16.64;57.42;96760.84;29395;229;63009;-59
2023/07/20 02:17:18;;;;;;;0.40;0.40;;;;;;;16.64;58.01;96758.09;29395;254;63005;-61
2023/07/20 02:17:49;;;;;;;0.40;0.40;;;;;;;16.63;58.07;96766.66;29394;203;64014;-59
2023/07/20 02:18:24;;;;;;;0.40;0.40;;;;;;;16.62;58.57;96770.53;29395;222;63009;-59
2023/07/20 02:18:56;;;;;;;0.40;0.40;;;;;;;16.60;59.21;96778.28;29395;197;63009;-60
2023/07/20 02:19:30;;;;;;;0.40;0.40;;;;;;;16.58;58.62;96770.37;29394;218;64009;-61
2023/07/20 02:20:01;;;;;;;0.40;0.40;;;;;;;16.57;59.55;96782.47;29395;213;63021;-60
2023/07/20 02:20:32;;;;;;;0.40;0.40;;;;;;;16.55;59.09;96771.06;29395;203;63005;-60
2023/07/20 02:21:03;;;;;;;0.40;0.40;;;;;;;16.55;59.01;96776.53;29394;220;64013;-61
2023/07/20 02:21:36;;;;;;;0.40;0.40;;;;;;;16.54;59.30;96779.59;29395;221;63004;-59
2023/07/20 02:22:07;;;;;;;0.40;0.40;;;;;;;16.52;59.20;96782.69;29395;226;63009;-60
2023/07/20 02:22:40;;;;;;;0.40;0.40;;;;;;;16.52;58.64;96770.91;29395;352;63004;-60
2023/07/20 02:23:14;;;;;;;0.40;0.40;;;;;;;16.52;58.59;96766.25;29395;222;63009;-59
2023/07/20 02:23:45;;;;;;;0.40;0.40;;;;;;;16.52;58.44;96768.97;29395;230;63004;-60
2023/07/20 02:24:17;;;;;;;0.40;0.40;;;;;;;16.52;58.48;96770.91;29395;204;63009;-60
2023/07/20 02:24:50;;;;;;;0.40;0.40;;;;;;;16.52;58.17;96768.97;29395;219;63005;-60
2023/07/20 02:25:21;;;;;;;0.40;0.40;;;;;;;16.52;58.65;96766.25;29395;327;63024;-60
2023/07/20 02:25:53;;;;;;;0.40;0.40;;;;;;;16.51;58.62;96764.63;29394;224;64009;-60
2023/07/20 02:26:26;;;;;;;0.40;0.40;;;;;;;16.49;59.56;96772.38;29395;197;63009;-61
2023/07/20 02:26:57;;;;;;;0.40;0.40;;;;;;;16.48;59.46;96765.31;29395;224;63005;-59
2023/07/20 02:27:28;;;;;;;0.40;0.40;;;;;;;16.46;60.49;96773.06;29395;232;63009;-59
2023/07/20 02:28:04;;;;;;;0.40;0.40;;;;;;;16.44;60.68;96780.78;29394;222;64009;-60
2023/07/20 02:28:35;;;;;;;0.40;0.40;;;;;;;16.42;60.70;96774.84;29395;240;63009;-60
2023/07/20 02:29:12;;;;;;;0.40;0.40;;;;;;;16.41;60.43;96770.50;29395;200;63004;-60
2023/07/20 02:29:43;;;;;;;0.40;0.40;;;;;;;16.38;60.98;96771.97;29395;204;63009;-59
2023/07/20 02:30:16;;;;;;;0.40;0.40;;;;;;;16.36;61.30;96778.91;29395;213;63004;-60
2023/07/20 02:30:49;;;;;;;0.40;0.40;;;;;;;16.32;62.43;96780.72;29395;379;63008;-59
2023/07/20 02:31:21;;;;;;;0.40;0.40;;;;;;;16.29;61.96;96778.63;29395;234;63004;-59
2023/07/20 02:31:52;;;;;;;0.40;0.40;;;;;;;16.26;62.35;96784.81;29395;197;63009;-61
2023/07/20 02:32:23;;;;;;;0.40;0.40;;;;;;;16.24;62.59;96779.66;29394;198;64009;-59
2023/07/20 02:32:58;;;;;;;0.40;0.40;;;;;;;16.24;62.69;96779.66;29395;210;63009;-59
2023/07/20 02:33:29;;;;;;;0.40;0.40;;;;;;;16.22;62.11;96778.38;29395;337;63005;-59
2023/07/20 02:34:00;;;;;;;0.40;0.40;;;;;;;16.21;62.43;96777.56;29395;196;63009;-60
2023/07/20 02:34:32;;;;;;;0.40;0.40;;;;;;;16.19;62.65;96784.50;29394;203;64002;-59
2023/07/20 02:35:04;;;;;;;0.40;0.40;;;;;;;16.17;62.31;96781.31;29395;219;63009;-59
2023/07/20 02:35:36;;;;;;;0.40;0.40;;;;;;;16.14;62.64;96781.97;29395;197;63005;-60
2023/07/20 02:36:11;;;;;;;0.35;0.35;;;;;;;16.13;62.03;96780.34;29395;231;63009;-60
2023/07/20 02:36:42;;;;;;;0.40;0.40;;;;;;;16.13;62.22;96781.16;29395;221;63004;-60
2023/07/20 02:37:17;;;;;;;0.40;0.40;;;;;;;16.11;62.39;96777.16;29394;205;64013;-59
2023/07/20 02:37:49;;;;;;;0.45;0.45;;;;;;;16.09;62.52;96781.03;29395;202;63004;-60
2023/07/20 02:38:20;;;;;;;0.40;0.40;;;;;;;16.07;63.58;96783.28;29395;335;63008;-59
2023/07/20 02:38:55;;;;;;;0.40;0.40;;;;;;;16.04;62.77;96778.47;29395;243;63004;-61
2023/07/20 02:39:28;;;;;;;0.40;0.40;;;;;;;16.02;63.04;96780.72;29394;216;64014;-60
2023/07/20 02:40:00;;;;;;;0.40;0.40;;;;;;;16.00;63.28;96776.72;29395;252;63005;-61
2023/07/20 02:40:31;;;;;;;0.40;0.40;;;;;;;15.97;64.08;96782.84;29395;238;63009;-61
2023/07/20 02:41:02;;;;;;;0.40;0.40;;;;;;;15.95;64.40;96780.44;29395;232;63005;-60
2023/07/20 02:41:34;;;;;;;0.40;0.40;;;;;;;15.92;64.76;96785.81;29395;202;63009;-59